Time;durP1;ratioP1;P1;durP2;ratioP2;P2;SDS_P1;SDS_P2;PMS_P1;PMS_P2;Temp;Humidity;BMP_temperature;BMP_pressure;BME280_temperature;BME280_humidity;BME280_pressure;Samples;Min_cycle;Max_cycle;Signal;HPM_P1;HPM_P2
2023/01/21 00:06:48;;;;;;;;;;;;;;;0.82;88.92;102885.03;20959440;28;19941;-60
2023/01/21 00:17:09;;;;;;;;;;;;;;;0.98;89.82;102901.84;20952784;28;19994;-58
2023/01/21 00:27:30;;;;;;;;;;;;;;;1.11;88.73;102913.41;20945787;28;19924;-58
2023/01/21 00:37:52;;;;;;;;;;;;;;;1.26;89.16;102921.72;20949991;28;19929;-58
2023/01/21 00:48:13;;;;;;;;;;;;;;;1.35;89.57;102943.38;20941549;28;19990;-58
2023/01/21 00:58:35;;;;;;;;;;;;;;;1.49;89.13;102959.22;20937584;28;20392;-56
2023/01/21 01:08:57;;;;;;;;;;;;;;;1.64;89.32;102982.81;20940119;28;19924;-58
2023/01/21 01:19:22;;;;;;;;;;;;;;;1.76;89.09;103003.69;20947777;28;19981;-57
2023/01/21 01:29:43;;;;;;;;;;;;;;;1.85;89.50;103015.16;20943007;28;19991;-59
2023/01/21 01:40:05;;;;;;;;;;;;;;;1.92;88.77;103019.69;20936431;28;19924;-59
2023/01/21 01:50:29;;;;;;;;;;;;;;;2.02;89.21;103010.72;20945243;28;19929;-57
2023/01/21 02:00:50;;;;;;;;;;;;;;;2.09;88.98;103006.75;20945701;28;20387;-59
2023/01/21 02:11:13;;;;;;;;;;;;;;;2.13;88.80;103006.03;20937035;28;19990;-58
2023/01/21 02:21:46;;;;;;;;;;;;;;;1.97;89.02;103007.13;20936843;28;19928;-57
2023/01/21 02:32:24;;;;;;;;;;;;;;;1.91;89.04;103019.63;20925347;28;19928;-59
2023/01/21 02:42:49;;;;;;;;;;;;;;;1.78;89.58;103036.13;20930806;28;20418;-58
2023/01/21 02:53:37;;;;;;;;;;;;;;;1.78;89.33;103045.47;20948918;28;19924;-58
2023/01/21 03:04:04;;;;;;;;;;;;;;;1.79;89.45;103053.22;20928730;28;19974;-58
2023/01/21 03:25:15;;;;;;;;;;;;;;;1.89;89.29;103060.41;20927878;28;19929;-57
2023/01/21 03:35:39;;;;;;;;;;;;;;;1.96;90.29;103061.53;20933183;28;19971;-58
2023/01/21 03:46:10;;;;;;;;;;;;;;;1.95;89.67;103059.78;20952794;28;19924;-57
2023/01/21 03:56:31;;;;;;;;;;;;;;;2.01;88.84;103065.16;20954232;28;19929;-59
2023/01/21 04:06:52;;;;;;;;;;;;;;;1.97;89.41;103084.59;20943603;28;19924;-57
2023/01/21 04:17:14;;;;;;;;;;;;;;;1.98;89.90;103082.88;20918281;28;19925;-58
2023/01/21 04:27:35;;;;;;;;;;;;;;;2.00;90.03;103104.25;20947194;28;19928;-57
2023/01/21 04:37:56;;;;;;;;;;;;;;;2.02;90.32;103113.72;20939743;28;19971;-57
2023/01/21 04:48:18;;;;;;;;;;;;;;;2.09;90.41;103134.41;20948553;28;20397;-57
2023/01/21 04:58:39;;;;;;;;;;;;;;;2.10;90.33;103134.47;20941716;28;19932;-57
2023/01/21 05:09:01;;;;;;;;;;;;;;;2.17;90.36;103143.25;20941624;28;19929;-57
2023/01/21 05:19:22;;;;;;;;;;;;;;;2.15;90.27;103148.28;20942680;28;19925;-57
2023/01/21 05:29:43;;;;;;;;;;;;;;;2.07;90.50;103170.06;20942912;28;20327;-59
2023/01/21 05:40:05;;;;;;;;;;;;;;;2.12;90.49;103177.94;20942029;28;19924;-59
2023/01/21 05:50:27;;;;;;;;;;;;;;;2.20;90.41;103185.09;20941040;28;19925;-58
2023/01/21 06:00:48;;;;;;;;;;;;;;;2.31;91.14;103204.28;20947013;28;19932;-57
2023/01/21 06:11:10;;;;;;;;;;;;;;;2.36;90.11;103207.94;20945412;28;19978;-57
2023/01/21 06:21:31;;;;;;;;;;;;;;;2.40;89.72;103220.00;20936781;28;19936;-56
2023/01/21 06:31:53;;;;;;;;;;;;;;;2.41;89.89;103231.97;20934781;28;19983;-57
2023/01/21 06:42:16;;;;;;;;;;;;;;;2.44;89.99;103246.53;20933024;28;19977;-58
2023/01/21 06:52:38;;;;;;;;;;;;;;;2.48;89.67;103254.41;20944542;28;19990;-57
2023/01/21 07:03:00;;;;;;;;;;;;;;;2.50;89.52;103268.13;20940916;28;20014;-57
2023/01/21 07:13:22;;;;;;;;;;;;;;;2.52;89.58;103296.28;20942115;28;20368;-58
2023/01/21 07:23:43;;;;;;;;;;;;;;;2.53;89.51;103298.91;20932458;28;19994;-57
2023/01/21 07:34:05;;;;;;;;;;;;;;;2.51;89.78;103310.72;20928285;28;19924;-57
2023/01/21 07:44:26;;;;;;;;;;;;;;;2.55;89.71;103317.72;20924329;28;19928;-57
2023/01/21 07:54:48;;;;;;;;;;;;;;;2.54;89.46;103320.22;20931190;28;19983;-57
2023/01/21 08:05:09;;;;;;;;;;;;;;;2.57;89.88;103336.56;20950162;28;19978;-56
2023/01/21 08:15:31;;;;;;;;;;;;;;;2.59;90.02;103344.28;20935671;28;19932;-57
2023/01/21 08:25:52;;;;;;;;;;;;;;;2.60;89.84;103357.13;20951187;28;19924;-57
2023/01/21 08:36:14;;;;;;;;;;;;;;;2.64;89.85;103373.44;20946726;28;19924;-58
2023/01/21 08:46:35;;;;;;;;;;;;;;;2.64;90.13;103378.56;20927658;28;19936;-59
2023/01/21 08:56:57;;;;;;;;;;;;;;;2.68;90.32;103396.66;20950078;28;19925;-57
2023/01/21 09:07:18;;;;;;;;;;;;;;;2.77;90.70;103417.50;20944143;28;19986;-57
2023/01/21 09:17:39;;;;;;;;;;;;;;;2.86;90.80;103425.56;20937974;28;19943;-59
2023/01/21 09:28:01;;;;;;;;;;;;;;;2.94;91.30;103426.78;20931342;28;20424;-59
2023/01/21 09:38:23;;;;;;;;;;;;;;;3.02;91.23;103445.88;20936128;28;19925;-57
2023/01/21 09:48:45;;;;;;;;;;;;;;;3.08;91.39;103446.13;20937028;28;20273;-58
2023/01/21 09:59:12;;;;;;;;;;;;;;;3.18;91.24;103451.66;20955360;28;19936;-57
2023/01/21 10:09:39;;;;;;;;;;;;;;;3.13;90.89;103474.47;20927246;28;19932;-57
2023/01/21 10:20:14;;;;;;;;;;;;;;;3.03;90.37;103493.66;20937109;28;20080;-57
2023/01/21 10:30:38;;;;;;;;;;;;;;;2.99;90.57;103496.00;20937838;28;19928;-59
2023/01/21 10:41:19;;;;;;;;;;;;;;;2.91;91.13;103488.00;20936994;28;19935;-59
2023/01/21 10:51:45;;;;;;;;;;;;;;;2.85;91.15;103492.88;20931034;28;19928;-57
2023/01/21 11:02:06;;;;;;;;;;;;;;;2.95;91.59;103502.66;20938868;28;19955;-57
2023/01/21 11:12:29;;;;;;;;;;;;;;;3.13;91.32;103483.84;20926435;28;19966;-58
2023/01/21 11:22:50;;;;;;;;;;;;;;;3.16;90.62;103489.06;20928325;28;19935;-58
2023/01/21 11:33:20;;;;;;;;;;;;;;;3.21;91.07;103492.69;20933337;28;19925;-57
2023/01/21 11:43:45;;;;;;;;;;;;;;;3.22;90.45;103486.78;20934389;28;19978;-58
2023/01/21 11:54:12;;;;;;;;;;;;;;;3.27;90.63;103469.94;20941079;28;19978;-59
2023/01/21 12:04:34;;;;;;;;;;;;;;;3.36;90.08;103475.44;20926212;28;19954;-58
2023/01/21 12:14:58;;;;;;;;;;;;;;;3.44;89.73;103472.41;20931224;28;19982;-57
2023/01/21 12:25:39;;;;;;;;;;;;;;;3.50;89.16;103471.78;20927950;28;19928;-57
2023/01/21 12:36:09;;;;;;;;;;;;;;;3.36;89.50;103471.19;20929660;28;19933;-58
2023/01/21 12:46:35;;;;;;;;;;;;;;;3.49;89.32;103470.03;20954749;28;19995;-57
2023/01/21 12:57:02;;;;;;;;;;;;;;;3.42;88.81;103468.03;20958054;28;19924;-59
2023/01/21 13:07:27;;;;;;;;;;;;;;;3.35;88.80;103476.25;20940801;28;20429;-57
2023/01/21 13:17:50;;;;;;;;;;;;;;;3.40;89.02;103483.31;20948094;28;19978;-57
2023/01/21 13:28:15;;;;;;;;;;;;;;;3.44;88.44;103486.88;20954477;28;20435;-58
2023/01/21 13:38:50;;;;;;;;;;;;;;;3.53;88.49;103492.38;20929993;28;19929;-58
2023/01/21 13:49:30;;;;;;;;;;;;;;;3.52;88.86;103490.59;20925034;28;19978;-57
2023/01/21 14:00:02;;;;;;;;;;;;;;;3.63;88.80;103490.25;20935557;28;19932;-59
2023/01/21 14:10:24;;;;;;;;;;;;;;;3.61;88.75;103511.47;20946863;28;20253;-57
2023/01/21 14:21:04;;;;;;;;;;;;;;;3.57;88.82;103505.34;20925531;28;19945;-58
2023/01/21 14:31:35;;;;;;;;;;;;;;;3.57;89.31;103525.81;20947205;28;19924;-59
2023/01/21 14:42:09;;;;;;;;;;;;;;;3.49;89.86;103526.31;20940848;28;20261;-59
2023/01/21 14:52:32;;;;;;;;;;;;;;;3.41;90.06;103545.59;20938265;28;19924;-58
2023/01/21 15:03:04;;;;;;;;;;;;;;;3.49;89.31;103542.56;20934324;28;19925;-57
2023/01/21 15:13:44;;;;;;;;;;;;;;;3.49;90.00;103555.34;20926793;28;19925;-58
2023/01/21 15:24:17;;;;;;;;;;;;;;;3.43;87.92;103564.44;20933879;28;19983;-58
2023/01/21 15:34:41;;;;;;;;;;;;;;;3.34;88.15;103564.94;20934949;28;20379;-57
2023/01/21 15:45:11;;;;;;;;;;;;;;;3.24;87.97;103559.34;20928842;28;19978;-57
2023/01/21 15:55:33;;;;;;;;;;;;;;;3.13;88.87;103568.22;20914220;28;19925;-58
2023/01/21 16:06:00;;;;;;;;;;;;;;;3.04;87.90;103572.13;20931992;28;20055;-57
2023/01/21 16:16:22;;;;;;;;;;;;;;;2.93;88.43;103582.69;20938045;28;20193;-57
2023/01/21 16:26:43;;;;;;;;;;;;;;;2.82;88.36;103584.72;20935488;28;19982;-58
2023/01/21 16:37:05;;;;;;;;;;;;;;;2.70;88.78;103573.06;20955032;28;19989;-57
2023/01/21 16:47:36;;;;;;;;;;;;;;;2.61;88.92;103568.44;20919022;28;19985;-57
2023/01/21 16:57:58;;;;;;;;;;;;;;;2.52;89.37;103573.09;20942532;28;19974;-58
2023/01/21 17:08:19;;;;;;;;;;;;;;;2.43;89.21;103557.34;20945773;28;19959;-58
2023/01/21 17:18:47;;;;;;;;;;;;;;;2.44;89.91;103548.88;20940986;28;19924;-56
2023/01/21 17:29:25;;;;;;;;;;;;;;;2.59;90.32;103554.69;20938955;28;19931;-58
2023/01/21 17:39:47;;;;;;;;;;;;;;;2.64;89.87;103547.22;20931822;28;19928;-57
2023/01/21 17:50:21;;;;;;;;;;;;;;;2.59;89.79;103544.47;20944916;28;19931;-57
2023/01/21 18:00:43;;;;;;;;;;;;;;;2.50;89.62;103549.16;20934519;28;20469;-57
2023/01/21 18:11:04;;;;;;;;;;;;;;;2.47;89.58;103549.00;20935236;28;19931;-57
2023/01/21 18:21:26;;;;;;;;;;;;;;;2.42;89.52;103549.63;20956192;28;19980;-59
2023/01/21 18:31:50;;;;;;;;;;;;;;;2.38;89.73;103552.81;20948954;28;20362;-57
2023/01/21 18:42:16;;;;;;;;;;;;;;;2.32;90.34;103553.41;20912847;28;19966;-57
2023/01/21 18:52:37;;;;;;;;;;;;;;;2.28;90.40;103556.63;20936057;28;20334;-59
2023/01/21 19:03:00;;;;;;;;;;;;;;;2.22;90.83;103556.31;20944552;28;19925;-58
2023/01/21 19:13:21;;;;;;;;;;;;;;;2.16;90.46;103550.94;20921029;28;19974;-58
2023/01/21 19:23:43;;;;;;;;;;;;;;;2.14;90.68;103542.31;20934792;28;19929;-58
2023/01/21 19:34:04;;;;;;;;;;;;;;;2.07;91.14;103550.47;20934840;28;19929;-58
2023/01/21 19:44:26;;;;;;;;;;;;;;;2.07;90.26;103545.34;20932327;28;19929;-56
2023/01/21 19:54:47;;;;;;;;;;;;;;;2.13;90.88;103555.88;20940160;28;19974;-57
2023/01/21 20:05:09;;;;;;;;;;;;;;;2.13;90.89;103566.09;20929547;28;20368;-58
2023/01/21 20:15:33;;;;;;;;;;;;;;;2.15;90.51;103569.59;20955215;28;19928;-58
2023/01/21 20:25:56;;;;;;;;;;;;;;;2.19;89.84;103551.06;20958921;28;20007;-58
2023/01/21 20:36:19;;;;;;;;;;;;;;;2.22;90.14;103565.66;20945270;28;19924;-58
2023/01/21 20:46:44;;;;;;;;;;;;;;;2.25;89.61;103576.91;20946725;28;21437;-57
2023/01/21 20:57:12;;;;;;;;;;;;;;;2.34;89.35;103585.00;20938824;28;19924;-57
2023/01/21 21:07:33;;;;;;;;;;;;;;;2.44;88.27;103594.84;20940424;28;19989;-58
2023/01/21 21:17:55;;;;;;;;;;;;;;;2.47;87.90;103582.22;20950531;28;19932;-59
2023/01/21 21:28:17;;;;;;;;;;;;;;;2.37;86.17;103580.03;20944552;28;19928;-58
2023/01/21 21:38:39;;;;;;;;;;;;;;;2.22;85.69;103576.75;20944357;28;19925;-57
2023/01/21 21:49:01;;;;;;;;;;;;;;;2.08;85.40;103575.22;20943291;28;19978;-59
2023/01/21 21:59:22;;;;;;;;;;;;;;;1.96;85.29;103572.03;20932680;28;19928;-58
2023/01/21 22:09:44;;;;;;;;;;;;;;;1.93;85.59;103569.34;20941630;28;19924;-57
2023/01/21 22:20:05;;;;;;;;;;;;;;;1.83;85.81;103574.81;20937902;28;19959;-57
2023/01/21 22:30:26;;;;;;;;;;;;;;;1.76;86.33;103562.53;20913171;28;20038;-57
2023/01/21 22:40:55;;;;;;;;;;;;;;;1.59;87.39;103579.56;20930475;28;20449;-58
2023/01/21 22:51:18;;;;;;;;;;;;;;;1.66;87.37;103601.16;20942585;28;19924;-59
2023/01/21 23:01:39;;;;;;;;;;;;;;;1.74;86.91;103590.53;20929946;28;20287;-57
2023/01/21 23:12:01;;;;;;;;;;;;;;;1.79;87.78;103572.91;20923506;28;19948;-57
2023/01/21 23:22:22;;;;;;;;;;;;;;;1.83;87.30;103559.50;20928080;28;19940;-57
2023/01/21 23:32:43;;;;;;;;;;;;;;;1.84;86.65;103563.78;20939505;28;19982;-59
2023/01/21 23:43:05;;;;;;;;;;;;;;;1.94;87.08;103558.34;20947726;28;19935;-58
2023/01/21 23:53:26;;;;;;;;;;;;;;;1.99;86.19;103551.78;20918069;28;20372;-58
